Time;durP1;ratioP1;P1;durP2;ratioP2;P2;SDS_P1;SDS_P2;PMS_P1;PMS_P2;Temp;Humidity;BMP_temperature;BMP_pressure;BME280_temperature;BME280_humidity;BME280_pressure;Samples;Min_cycle;Max_cycle;Signal;HPM_P1;HPM_P2
2024/04/22 00:02:01;;;;;;;0.20;0.10;;;;;;;;;;5321091;26;20019;-80
2024/04/22 00:04:27;;;;;;;0.20;0.10;;;;;;;;;;5318003;26;19997;-80
2024/04/22 00:06:54;;;;;;;0.20;0.10;;;;;;;;;;5328726;26;20005;-79
2024/04/22 00:09:20;;;;;;;0.20;0.10;;;;;;;;;;5328768;26;20005;-80
2024/04/22 00:11:46;;;;;;;0.20;0.00;;;;;;;;;;5322027;26;20775;-79
2024/04/22 00:14:12;;;;;;;0.20;0.10;;;;;;;;;;5322338;26;20004;-80
2024/04/22 00:16:41;;;;;;;0.20;0.00;;;;;;;;;;5325688;26;20009;-79
2024/04/22 00:19:07;;;;;;;0.20;0.00;;;;;;;;;;5324531;26;20004;-80
2024/04/22 00:21:33;;;;;;;0.20;0.00;;;;;;;;;;5332238;26;19997;-79
2024/04/22 00:24:00;;;;;;;0.20;0.00;;;;;;;;;;5329784;26;20001;-79
2024/04/22 00:26:27;;;;;;;0.20;0.10;;;;;;;;;;5320097;26;20004;-79
2024/04/22 00:28:53;;;;;;;0.20;0.10;;;;;;;;;;5316795;26;20075;-79
2024/04/22 00:31:19;;;;;;;0.20;0.10;;;;;;;;;;5322954;26;20905;-79
2024/04/22 00:33:45;;;;;;;0.35;0.22;;;;;;;;;;5318373;26;20015;-78
2024/04/22 00:36:11;;;;;;;0.20;0.10;;;;;;;;;;5329809;26;20520;-81
2024/04/22 00:38:38;;;;;;;0.20;0.13;;;;;;;;;;5320805;26;20004;-79
2024/04/22 00:41:04;;;;;;;0.20;0.10;;;;;;;;;;5322302;26;20045;-79
2024/04/22 00:43:30;;;;;;;0.20;0.10;;;;;;;;;;5320557;26;20004;-79
2024/04/22 00:45:57;;;;;;;0.20;0.08;;;;;;;;;;5318520;26;20009;-80
2024/04/22 00:48:23;;;;;;;0.20;0.10;;;;;;;;;;5326284;26;20579;-77
2024/04/22 00:50:51;;;;;;;0.20;0.00;;;;;;;;;;5350925;26;20056;-80
2024/04/22 00:53:17;;;;;;;0.52;0.43;;;;;;;;;;5322286;26;20111;-80
2024/04/22 00:55:44;;;;;;;0.20;0.00;;;;;;;;;;5324159;26;20036;-79
2024/04/22 00:58:12;;;;;;;0.20;0.10;;;;;;;;;;5317225;26;20020;-80
2024/04/22 01:00:39;;;;;;;0.25;0.20;;;;;;;;;;5323821;26;20045;-80
2024/04/22 01:03:06;;;;;;;0.20;0.00;;;;;;;;;;5322697;26;20032;-79
2024/04/22 01:05:34;;;;;;;0.20;0.00;;;;;;;;;;5319696;26;20081;-81
2024/04/22 01:08:00;;;;;;;0.20;0.00;;;;;;;;;;5347970;26;20036;-80
2024/04/22 01:10:27;;;;;;;0.20;0.00;;;;;;;;;;5318876;26;20001;-80
2024/04/22 01:12:54;;;;;;;1.00;0.63;;;;;;;;;;5318121;26;20027;-78
2024/04/22 01:15:20;;;;;;;0.20;0.10;;;;;;;;;;5349583;26;20001;-79
2024/04/22 01:17:46;;;;;;;0.20;0.10;;;;;;;;;;5319721;26;20083;-78
2024/04/22 01:20:13;;;;;;;0.20;0.08;;;;;;;;;;5318061;26;20489;-80
2024/04/22 01:22:39;;;;;;;0.20;0.10;;;;;;;;;;5324014;26;20016;-80
2024/04/22 01:25:06;;;;;;;0.20;0.00;;;;;;;;;;5318180;26;20060;-80
2024/04/22 01:27:52;;;;;;;0.20;0.10;;;;;;;;;;5293095;26;20225;-80
2024/04/22 01:30:19;;;;;;;0.20;0.10;;;;;;;;;;5320500;26;20773;-80
2024/04/22 01:32:45;;;;;;;0.30;0.30;;;;;;;;;;5321853;26;20080;-80
2024/04/22 01:35:11;;;;;;;0.20;0.10;;;;;;;;;;5314720;26;20027;-81
2024/04/22 01:37:37;;;;;;;0.20;0.10;;;;;;;;;;5321160;26;21952;-80
2024/04/22 01:40:04;;;;;;;0.20;0.10;;;;;;;;;;5324719;26;20028;-79
2024/04/22 01:42:30;;;;;;;0.30;0.20;;;;;;;;;;5323080;26;19998;-79
2024/04/22 01:44:56;;;;;;;0.20;0.10;;;;;;;;;;5320279;26;20012;-81
2024/04/22 01:47:22;;;;;;;0.20;0.10;;;;;;;;;;5316122;26;19997;-79
2024/04/22 01:49:48;;;;;;;0.20;0.10;;;;;;;;;;5322472;26;20005;-80
2024/04/22 01:52:14;;;;;;;0.20;0.00;;;;;;;;;;5317785;26;20009;-81
2024/04/22 01:54:40;;;;;;;0.20;0.03;;;;;;;;;;5323516;26;20032;-80
2024/04/22 01:57:06;;;;;;;0.20;0.10;;;;;;;;;;5327044;26;20010;-80
2024/04/22 01:59:33;;;;;;;0.20;0.08;;;;;;;;;;5312124;26;20045;-81
2024/04/22 02:01:59;;;;;;;0.20;0.10;;;;;;;;;;5324020;26;20019;-80
2024/04/22 02:04:25;;;;;;;0.20;0.10;;;;;;;;;;5318789;26;20008;-78
2024/04/22 02:06:51;;;;;;;0.20;0.10;;;;;;;;;;5321093;26;20504;-80
2024/04/22 02:09:28;;;;;;;0.20;0.10;;;;;;;;;;5323771;26;20001;-79
2024/04/22 02:11:55;;;;;;;0.20;0.10;;;;;;;;;;5324406;26;20017;-80
2024/04/22 02:14:22;;;;;;;0.20;0.10;;;;;;;;;;5325621;26;20070;-80
2024/04/22 02:16:48;;;;;;;0.20;0.10;;;;;;;;;;5323281;26;20521;-80
2024/04/22 02:19:14;;;;;;;0.20;0.10;;;;;;;;;;5321282;26;20009;-81
2024/04/22 02:21:40;;;;;;;0.20;0.10;;;;;;;;;;5328301;26;21056;-81
2024/04/22 02:24:06;;;;;;;0.20;0.10;;;;;;;;;;5321301;26;20469;-78
2024/04/22 02:26:32;;;;;;;0.20;0.10;;;;;;;;;;5323359;26;20013;-81
2024/04/22 02:28:58;;;;;;;0.20;0.10;;;;;;;;;;5326167;26;20037;-80
2024/04/22 02:31:24;;;;;;;0.20;0.10;;;;;;;;;;5328873;26;20350;-81
2024/04/22 02:33:50;;;;;;;0.20;0.10;;;;;;;;;;5328424;26;20062;-80
2024/04/22 02:36:16;;;;;;;0.20;0.00;;;;;;;;;;5326808;26;20051;-80
2024/04/22 02:38:43;;;;;;;0.20;0.10;;;;;;;;;;5329966;26;20075;-80
2024/04/22 02:41:09;;;;;;;0.20;0.00;;;;;;;;;;5328842;26;20084;-79
2024/04/22 02:43:36;;;;;;;0.22;0.08;;;;;;;;;;5324740;26;20000;-80
2024/04/22 02:46:02;;;;;;;0.20;0.10;;;;;;;;;;5325775;26;20017;-81
2024/04/22 02:48:28;;;;;;;0.20;0.10;;;;;;;;;;5325927;26;20012;-80
2024/04/22 02:50:54;;;;;;;0.20;0.10;;;;;;;;;;5328146;26;20012;-79
2024/04/22 02:53:20;;;;;;;0.20;0.10;;;;;;;;;;5319793;26;20008;-79
2024/04/22 02:55:46;;;;;;;0.20;0.10;;;;;;;;;;5326729;26;20020;-80
2024/04/22 02:58:33;;;;;;;0.20;0.00;;;;;;;;;;5308113;26;20016;-81
2024/04/22 03:00:59;;;;;;;0.30;0.20;;;;;;;;;;5321861;26;20019;-80
2024/04/22 03:03:26;;;;;;;0.20;0.10;;;;;;;;;;5319277;26;20032;-81
2024/04/22 03:05:52;;;;;;;0.20;0.10;;;;;;;;;;5326743;26;20078;-80
2024/04/22 03:08:18;;;;;;;0.20;0.00;;;;;;;;;;5324536;26;20043;-81
2024/04/22 03:10:44;;;;;;;0.20;0.10;;;;;;;;;;5319553;26;20016;-80
2024/04/22 03:13:30;;;;;;;0.20;0.20;;;;;;;;;;5303058;26;20465;-80
2024/04/22 03:15:56;;;;;;;0.20;0.00;;;;;;;;;;5329597;26;20642;-79
2024/04/22 03:18:41;;;;;;;0.20;0.10;;;;;;;;;;5317358;26;20024;-79
2024/04/22 03:21:07;;;;;;;0.20;0.10;;;;;;;;;;5321950;26;20132;-80
2024/04/22 03:23:34;;;;;;;0.20;0.00;;;;;;;;;;5326805;26;20005;-79
2024/04/22 03:26:00;;;;;;;0.20;0.15;;;;;;;;;;5323112;26;20540;-80
2024/04/22 03:28:26;;;;;;;0.20;0.03;;;;;;;;;;5355942;26;19997;-79
2024/04/22 03:31:12;;;;;;;0.40;0.20;;;;;;;;;;5320033;26;20013;-79
2024/04/22 03:33:38;;;;;;;0.20;0.10;;;;;;;;;;5323398;26;23222;-79
2024/04/22 03:36:12;;;;;;;0.20;0.00;;;;;;;;;;5322440;26;20579;-80
2024/04/22 03:38:38;;;;;;;0.20;0.15;;;;;;;;;;5321088;26;20009;-80
2024/04/22 03:41:04;;;;;;;0.20;0.10;;;;;;;;;;5317464;26;21250;-80
2024/04/22 03:43:31;;;;;;;0.20;0.10;;;;;;;;;;5330781;26;20009;-79
2024/04/22 03:49:51;;;;;;;0.20;0.00;;;;;;;;;;5350730;26;19997;-79
2024/04/22 03:51:36;;;;;;;0.20;0.10;;;;;;;;;;5329086;26;19997;-81
2024/04/22 03:54:03;;;;;;;0.20;0.08;;;;;;;;;;5330205;26;20009;-80
2024/04/22 03:56:29;;;;;;;0.22;0.22;;;;;;;;;;5324861;26;20009;-81
2024/04/22 03:58:55;;;;;;;0.20;0.03;;;;;;;;;;5328039;26;19997;-81
2024/04/22 04:01:30;;;;;;;0.20;0.10;;;;;;;;;;5333858;26;20497;-80
2024/04/22 04:03:58;;;;;;;0.20;0.10;;;;;;;;;;5331552;26;20020;-78
2024/04/22 04:06:31;;;;;;;0.20;0.10;;;;;;;;;;5326725;26;20337;-81
2024/04/22 04:08:57;;;;;;;0.20;0.10;;;;;;;;;;5327613;26;20021;-81
2024/04/22 04:11:27;;;;;;;0.20;0.10;;;;;;;;;;5319517;26;20005;-80
2024/04/22 04:13:53;;;;;;;0.20;0.10;;;;;;;;;;5321429;26;22148;-81
2024/04/22 04:16:19;;;;;;;0.20;0.00;;;;;;;;;;5356202;26;20008;-80
2024/04/22 04:19:06;;;;;;;0.20;0.10;;;;;;;;;;5326323;26;20019;-80
2024/04/22 04:21:32;;;;;;;0.20;0.10;;;;;;;;;;5336537;26;20015;-80
2024/04/22 04:23:58;;;;;;;0.30;0.20;;;;;;;;;;5330328;26;20044;-79
2024/04/22 04:26:24;;;;;;;0.20;0.00;;;;;;;;;;5329390;26;20459;-80
2024/04/22 04:28:50;;;;;;;0.40;0.30;;;;;;;;;;5321888;26;20044;-79
2024/04/22 04:31:17;;;;;;;0.20;0.10;;;;;;;;;;5322682;26;20015;-80
2024/04/22 04:33:43;;;;;;;0.20;0.00;;;;;;;;;;5324296;26;20791;-80
2024/04/22 04:36:09;;;;;;;0.20;0.10;;;;;;;;;;5322393;26;20009;-80
2024/04/22 04:38:36;;;;;;;0.20;0.00;;;;;;;;;;5326924;26;20012;-79
2024/04/22 04:41:02;;;;;;;0.20;0.10;;;;;;;;;;5326903;26;20002;-80
2024/04/22 04:43:29;;;;;;;0.20;0.10;;;;;;;;;;5323476;26;20025;-80
2024/04/22 04:45:56;;;;;;;0.20;0.10;;;;;;;;;;5323081;26;20009;-80
2024/04/22 04:48:23;;;;;;;0.20;0.10;;;;;;;;;;5323135;26;20001;-80
2024/04/22 04:50:49;;;;;;;0.20;0.00;;;;;;;;;;5352568;26;20499;-80
2024/04/22 04:53:16;;;;;;;1.27;0.32;;;;;;;;;;5326795;26;20078;-80
2024/04/22 04:55:42;;;;;;;0.22;0.15;;;;;;;;;;5334264;26;20001;-80
2024/04/22 04:58:09;;;;;;;0.20;0.10;;;;;;;;;;5328850;26;20122;-80
2024/04/22 05:00:35;;;;;;;0.20;0.00;;;;;;;;;;5331576;26;20009;-80
2024/04/22 05:03:01;;;;;;;0.20;0.10;;;;;;;;;;5334104;26;20012;-80
2024/04/22 05:05:29;;;;;;;0.20;0.05;;;;;;;;;;5391506;21;20027;-79
2024/04/22 05:07:55;;;;;;;0.20;0.10;;;;;;;;;;5332428;26;20028;-79
2024/04/22 05:10:22;;;;;;;0.20;0.10;;;;;;;;;;5348559;26;19997;-79
2024/04/22 05:12:48;;;;;;;0.20;0.10;;;;;;;;;;5366445;26;19997;-80
2024/04/22 05:15:14;;;;;;;0.20;0.10;;;;;;;;;;5356117;26;19996;-80
2024/04/22 05:17:41;;;;;;;0.20;0.10;;;;;;;;;;5331097;26;20355;-80
2024/04/22 05:20:07;;;;;;;0.20;0.10;;;;;;;;;;5357144;26;20004;-80
2024/04/22 05:22:34;;;;;;;0.20;0.10;;;;;;;;;;5333112;26;20037;-78
2024/04/22 05:25:00;;;;;;;0.20;0.10;;;;;;;;;;5356389;26;20018;-79
2024/04/22 05:27:26;;;;;;;0.20;0.10;;;;;;;;;;5348755;26;20038;-79
2024/04/22 05:29:52;;;;;;;0.20;0.10;;;;;;;;;;5358000;26;20457;-80
2024/04/22 05:32:19;;;;;;;0.20;0.10;;;;;;;;;;5358724;26;20071;-80
2024/04/22 05:37:30;;;;;;;0.20;0.10;;;;;;;;;;5351244;26;20015;-80
2024/04/22 05:39:56;;;;;;;0.20;0.10;;;;;;;;;;5328100;26;20010;-80
2024/04/22 05:42:22;;;;;;;0.20;0.20;;;;;;;;;;5351822;26;20012;-80
2024/04/22 05:44:48;;;;;;;0.20;0.10;;;;;;;;;;5326471;26;20004;-80
2024/04/22 05:47:15;;;;;;;0.20;0.10;;;;;;;;;;5361032;26;20037;-79
2024/04/22 05:49:41;;;;;;;0.20;0.10;;;;;;;;;;5345894;26;20484;-80
2024/04/22 05:52:07;;;;;;;0.20;0.10;;;;;;;;;;5340788;26;20486;-80
2024/04/22 05:54:34;;;;;;;0.20;0.10;;;;;;;;;;5359437;26;20008;-80
2024/04/22 05:57:00;;;;;;;0.20;0.10;;;;;;;;;;5320023;26;20001;-79
2024/04/22 05:59:26;;;;;;;0.20;0.10;;;;;;;;;;5347908;26;20005;-79
2024/04/22 06:01:52;;;;;;;0.20;0.00;;;;;;;;;;5319581;26;20770;-79
2024/04/22 06:04:18;;;;;;;0.20;0.10;;;;;;;;;;5350555;26;19997;-80
2024/04/22 06:06:44;;;;;;;0.20;0.10;;;;;;;;;;5352521;26;20005;-79
2024/04/22 06:09:10;;;;;;;0.20;0.10;;;;;;;;;;5357952;26;20018;-79
2024/04/22 06:11:37;;;;;;;0.20;0.10;;;;;;;;;;5347293;26;20602;-79
2024/04/22 06:14:03;;;;;;;0.20;0.10;;;;;;;;;;5318180;26;20000;-79
2024/04/22 06:16:31;;;;;;;0.20;0.10;;;;;;;;;;5349339;26;20013;-79
2024/04/22 06:18:57;;;;;;;0.20;0.10;;;;;;;;;;5352590;26;20006;-80
2024/04/22 06:21:23;;;;;;;0.20;0.00;;;;;;;;;;5328594;26;20004;-79
2024/04/22 06:23:50;;;;;;;0.20;0.10;;;;;;;;;;5328173;26;20080;-79
2024/04/22 06:26:16;;;;;;;0.20;0.10;;;;;;;;;;5323481;26;20015;-80
2024/04/22 06:28:42;;;;;;;0.20;0.10;;;;;;;;;;5338998;26;20015;-80
2024/04/22 06:31:09;;;;;;;0.22;0.15;;;;;;;;;;5354745;26;19996;-80
2024/04/22 06:33:36;;;;;;;0.20;0.10;;;;;;;;;;5353526;26;20008;-79
2024/04/22 06:36:03;;;;;;;0.20;0.10;;;;;;;;;;5355521;26;20908;-79
2024/04/22 06:38:30;;;;;;;0.20;0.10;;;;;;;;;;5337324;26;20025;-79
2024/04/22 06:40:56;;;;;;;0.20;0.10;;;;;;;;;;5365533;26;19996;-80
2024/04/22 06:43:23;;;;;;;0.20;0.10;;;;;;;;;;5332754;26;20017;-80
2024/04/22 06:45:49;;;;;;;0.20;0.13;;;;;;;;;;5332586;26;20004;-79
2024/04/22 06:48:16;;;;;;;0.20;0.10;;;;;;;;;;5340153;26;20019;-79
2024/04/22 06:50:43;;;;;;;0.20;0.10;;;;;;;;;;5334850;26;20001;-80
2024/04/22 06:53:09;;;;;;;0.20;0.10;;;;;;;;;;5357900;26;20000;-80
2024/04/22 06:55:35;;;;;;;0.20;0.10;;;;;;;;;;5362367;26;20075;-79
2024/04/22 06:58:02;;;;;;;0.20;0.10;;;;;;;;;;5332280;26;20004;-80
2024/04/22 07:00:28;;;;;;;0.20;0.10;;;;;;;;;;5351183;26;20015;-81
2024/04/22 07:02:55;;;;;;;0.20;0.10;;;;;;;;;;5357411;26;20000;-80
2024/04/22 07:05:21;;;;;;;0.20;0.10;;;;;;;;;;5355629;26;19997;-81
2024/04/22 07:07:47;;;;;;;0.20;0.10;;;;;;;;;;5335514;26;20571;-81
2024/04/22 07:10:13;;;;;;;0.20;0.10;;;;;;;;;;5332636;26;20016;-82
2024/04/22 07:12:43;;;;;;;0.20;0.10;;;;;;;;;;5329862;26;20001;-81
2024/04/22 07:15:12;;;;;;;0.20;0.10;;;;;;;;;;5356191;26;20465;-79
2024/04/22 07:17:38;;;;;;;0.20;0.10;;;;;;;;;;5358542;26;19996;-81
2024/04/22 07:20:07;;;;;;;0.20;0.10;;;;;;;;;;5361583;26;20008;-80
2024/04/22 07:22:37;;;;;;;0.20;0.10;;;;;;;;;;5336339;26;20005;-80
2024/04/22 07:25:04;;;;;;;0.20;0.10;;;;;;;;;;5353405;26;20014;-79
2024/04/22 07:27:30;;;;;;;0.20;0.10;;;;;;;;;;5351813;26;20000;-78
2024/04/22 07:29:58;;;;;;;0.20;0.10;;;;;;;;;;5335898;26;20460;-79
2024/04/22 07:32:25;;;;;;;0.20;0.10;;;;;;;;;;5360656;26;19997;-80
2024/04/22 07:34:51;;;;;;;0.20;0.10;;;;;;;;;;5327138;26;20000;-78
2024/04/22 07:37:37;;;;;;;0.25;0.25;;;;;;;;;;5337372;26;20353;-80
2024/04/22 07:40:10;;;;;;;0.20;0.10;;;;;;;;;;5331917;26;20028;-80
2024/04/22 07:42:36;;;;;;;0.20;0.00;;;;;;;;;;5338487;26;20015;-81
2024/04/22 07:45:02;;;;;;;0.20;0.10;;;;;;;;;;5354767;26;20004;-79
2024/04/22 07:47:28;;;;;;;0.20;0.10;;;;;;;;;;5352980;26;19997;-85
2024/04/22 07:49:55;;;;;;;0.20;0.20;;;;;;;;;;5357918;26;20061;-83
2024/04/22 07:52:21;;;;;;;0.20;0.00;;;;;;;;;;5357711;26;20248;-79
2024/04/22 07:54:47;;;;;;;0.20;0.10;;;;;;;;;;5365904;26;20751;-80
2024/04/22 07:57:14;;;;;;;0.20;0.00;;;;;;;;;;5334357;26;20011;-81
2024/04/22 07:59:40;;;;;;;0.20;0.00;;;;;;;;;;5363547;26;20000;-80
2024/04/22 08:02:06;;;;;;;0.20;0.10;;;;;;;;;;5334150;26;20008;-82
2024/04/22 08:04:32;;;;;;;0.20;0.10;;;;;;;;;;5330443;26;20012;-78
2024/04/22 08:07:01;;;;;;;0.20;0.10;;;;;;;;;;5336584;26;20507;-80
2024/04/22 08:09:27;;;;;;;0.20;0.10;;;;;;;;;;5359622;26;20015;-80
2024/04/22 08:11:54;;;;;;;0.20;0.10;;;;;;;;;;5347842;26;20011;-81
2024/04/22 08:14:20;;;;;;;0.20;0.10;;;;;;;;;;5358871;26;20073;-81
2024/04/22 08:16:46;;;;;;;0.20;0.17;;;;;;;;;;5331476;26;20071;-80
2024/04/22 08:19:12;;;;;;;0.20;0.10;;;;;;;;;;5336311;26;20364;-82
2024/04/22 08:21:38;;;;;;;0.20;0.10;;;;;;;;;;5357617;26;19997;-82
2024/04/22 08:24:05;;;;;;;0.20;0.10;;;;;;;;;;5353519;26;20016;-79
2024/04/22 08:26:31;;;;;;;0.20;0.10;;;;;;;;;;5333795;26;20046;-83
2024/04/22 08:28:57;;;;;;;0.35;0.35;;;;;;;;;;5330616;26;20019;-80
2024/04/22 08:31:23;;;;;;;0.20;0.00;;;;;;;;;;5353696;26;19997;-83
2024/04/22 08:33:49;;;;;;;0.20;0.10;;;;;;;;;;5363891;26;20016;-81
2024/04/22 08:36:19;;;;;;;0.30;0.20;;;;;;;;;;5357984;26;19996;-81
2024/04/22 08:38:45;;;;;;;0.20;0.10;;;;;;;;;;5357877;26;20082;-80
2024/04/22 08:41:14;;;;;;;0.52;0.20;;;;;;;;;;5364702;26;20008;-81
2024/04/22 08:43:41;;;;;;;0.35;0.22;;;;;;;;;;5332825;26;20011;-81
2024/04/22 08:46:07;;;;;;;0.20;0.10;;;;;;;;;;5360233;26;20011;-82
2024/04/22 08:48:33;;;;;;;0.20;0.10;;;;;;;;;;5331265;26;20012;-81
2024/04/22 08:51:00;;;;;;;0.28;0.15;;;;;;;;;;5359324;26;20018;-82
2024/04/22 08:53:27;;;;;;;0.20;0.10;;;;;;;;;;5358629;26;20004;-80
2024/04/22 08:55:53;;;;;;;0.20;0.10;;;;;;;;;;5360128;26;20471;-81
2024/04/22 08:58:19;;;;;;;0.20;0.10;;;;;;;;;;5324249;26;20040;-80
2024/04/22 09:00:45;;;;;;;0.20;0.10;;;;;;;;;;5329025;26;20055;-81
2024/04/22 09:03:11;;;;;;;0.20;0.10;;;;;;;;;;5334299;26;20014;-82
2024/04/22 09:05:39;;;;;;;0.20;0.10;;;;;;;;;;5323288;26;20007;-80
2024/04/22 09:08:07;;;;;;;0.20;0.10;;;;;;;;;;5353294;26;20001;-81
2024/04/22 09:10:33;;;;;;;0.20;0.10;;;;;;;;;;5329556;26;20000;-81
2024/04/22 09:13:01;;;;;;;0.20;0.10;;;;;;;;;;5364303;26;20011;-80
2024/04/22 09:15:27;;;;;;;0.20;0.10;;;;;;;;;;5331960;26;20008;-81
2024/04/22 09:17:54;;;;;;;0.20;0.00;;;;;;;;;;5362331;26;20000;-83
2024/04/22 09:20:20;;;;;;;0.20;0.10;;;;;;;;;;5360863;26;20015;-81
2024/04/22 09:22:46;;;;;;;0.20;0.10;;;;;;;;;;5352444;26;20001;-81
2024/04/22 09:25:14;;;;;;;0.20;0.20;;;;;;;;;;5362295;26;20352;-81
2024/04/22 09:27:44;;;;;;;0.30;0.30;;;;;;;;;;5353026;26;20538;-81
2024/04/22 09:30:12;;;;;;;1.77;1.65;;;;;;;;;;5356404;26;20001;-80
2024/04/22 09:32:41;;;;;;;0.20;0.10;;;;;;;;;;5359583;26;20010;-82
2024/04/22 09:35:14;;;;;;;0.20;0.05;;;;;;;;;;5333866;26;20013;-82
2024/04/22 09:37:43;;;;;;;0.20;0.00;;;;;;;;;;5355061;26;20085;-81
2024/04/22 09:40:13;;;;;;;0.20;0.00;;;;;;;;;;5323151;26;20024;-82
2024/04/22 09:42:43;;;;;;;0.20;0.10;;;;;;;;;;5359410;26;20321;-83
2024/04/22 09:45:09;;;;;;;0.20;0.10;;;;;;;;;;5356369;26;20131;-82
2024/04/22 09:47:39;;;;;;;0.20;0.10;;;;;;;;;;5332182;26;20470;-82
2024/04/22 09:50:05;;;;;;;0.20;0.13;;;;;;;;;;5333634;26;20442;-81
2024/04/22 09:52:33;;;;;;;0.20;0.00;;;;;;;;;;5336608;26;20089;-82
2024/04/22 09:55:00;;;;;;;0.20;0.10;;;;;;;;;;5333956;26;20448;-81
2024/04/22 09:57:30;;;;;;;0.20;0.20;;;;;;;;;;5335005;26;20009;-81
2024/04/22 09:59:57;;;;;;;0.20;0.10;;;;;;;;;;5355474;26;20015;-78
2024/04/22 10:02:23;;;;;;;0.20;0.00;;;;;;;;;;5361748;26;20016;-80
2024/04/22 10:04:49;;;;;;;0.20;0.10;;;;;;;;;;5328078;26;20016;-81
2024/04/22 10:07:16;;;;;;;0.20;0.00;;;;;;;;;;5337208;26;20015;-82
2024/04/22 10:09:42;;;;;;;0.20;0.10;;;;;;;;;;5365235;26;20016;-81
2024/04/22 10:12:08;;;;;;;0.20;0.10;;;;;;;;;;5351636;26;20008;-82
2024/04/22 10:14:35;;;;;;;0.20;0.10;;;;;;;;;;5338901;26;20422;-81
2024/04/22 10:17:02;;;;;;;0.20;0.05;;;;;;;;;;5371587;26;20377;-81
2024/04/22 10:19:29;;;;;;;0.20;0.00;;;;;;;;;;5366491;26;20862;-83
2024/04/22 10:22:14;;;;;;;0.20;0.10;;;;;;;;;;5369353;26;20016;-80
2024/04/22 10:24:42;;;;;;;0.20;0.10;;;;;;;;;;5368769;26;19996;-79
2024/04/22 10:27:09;;;;;;;0.82;0.82;;;;;;;;;;5349940;26;19996;-81
2024/04/22 10:29:35;;;;;;;0.20;0.10;;;;;;;;;;5364047;26;20004;-82
2024/04/22 10:32:01;;;;;;;0.20;0.10;;;;;;;;;;5372364;26;20011;-81
2024/04/22 10:34:28;;;;;;;0.90;0.90;;;;;;;;;;5369391;26;20012;-83
2024/04/22 10:36:54;;;;;;;0.20;0.00;;;;;;;;;;5343110;26;19996;-81
2024/04/22 10:39:20;;;;;;;0.20;0.10;;;;;;;;;;5364813;26;20438;-82
2024/04/22 10:41:46;;;;;;;0.20;0.10;;;;;;;;;;5359432;26;20007;-84
2024/04/22 10:44:13;;;;;;;0.20;0.10;;;;;;;;;;5343955;26;20077;-81
2024/04/22 10:46:39;;;;;;;0.20;0.10;;;;;;;;;;5366851;26;20078;-82
2024/04/22 10:49:05;;;;;;;0.20;0.08;;;;;;;;;;5371280;26;19996;-79
2024/04/22 10:51:31;;;;;;;0.20;0.00;;;;;;;;;;5330981;26;20346;-81
2024/04/22 10:53:58;;;;;;;0.20;0.10;;;;;;;;;;5362473;26;20015;-80
2024/04/22 10:56:25;;;;;;;0.20;0.10;;;;;;;;;;5356115;26;19997;-83
2024/04/22 10:58:51;;;;;;;0.20;0.10;;;;;;;;;;5363311;26;20008;-81
2024/04/22 11:01:18;;;;;;;0.20;0.10;;;;;;;;;;5368039;26;20000;-81
2024/04/22 11:03:44;;;;;;;0.20;0.10;;;;;;;;;;5338167;26;20013;-80
2024/04/22 11:06:13;;;;;;;0.43;0.43;;;;;;;;;;5401133;21;20016;-77
2024/04/22 11:08:42;;;;;;;0.20;0.00;;;;;;;;;;5394575;26;20048;-76
2024/04/22 11:11:09;;;;;;;0.20;0.10;;;;;;;;;;5402116;26;20008;-80
2024/04/22 11:13:36;;;;;;;0.20;0.10;;;;;;;;;;5396984;26;20045;-78
2024/04/22 11:16:20;;;;;;;0.20;0.10;;;;;;;;;;5402033;26;20059;-79
2024/04/22 11:18:46;;;;;;;0.20;0.10;;;;;;;;;;5402217;26;20019;-79
2024/04/22 11:21:12;;;;;;;0.20;0.10;;;;;;;;;;5406228;26;20345;-78
2024/04/22 11:23:38;;;;;;;0.20;0.20;;;;;;;;;;5406210;26;20099;-78
2024/04/22 11:26:10;;;;;;;0.20;0.10;;;;;;;;;;5402080;26;20478;-78
2024/04/22 11:28:36;;;;;;;0.20;0.15;;;;;;;;;;5398008;26;20007;-78
2024/04/22 11:31:02;;;;;;;0.20;0.00;;;;;;;;;;5391626;26;20003;-78
2024/04/22 11:33:28;;;;;;;0.20;0.10;;;;;;;;;;5408101;26;20014;-79
2024/04/22 11:35:58;;;;;;;0.20;0.10;;;;;;;;;;5406957;26;19996;-79
2024/04/22 11:38:24;;;;;;;0.30;0.10;;;;;;;;;;5403547;26;20011;-78
2024/04/22 11:40:50;;;;;;;0.20;0.00;;;;;;;;;;5393338;26;20011;-79
2024/04/22 11:43:16;;;;;;;0.20;0.00;;;;;;;;;;5406000;26;19996;-79
2024/04/22 11:45:42;;;;;;;0.20;0.10;;;;;;;;;;5403834;26;19996;-79
2024/04/22 11:48:08;;;;;;;0.20;0.10;;;;;;;;;;5382275;26;19996;-80
2024/04/22 11:50:35;;;;;;;0.20;0.10;;;;;;;;;;5402877;26;20006;-77
2024/04/22 11:53:01;;;;;;;0.20;0.10;;;;;;;;;;5387525;26;20087;-80
2024/04/22 11:55:28;;;;;;;0.20;0.10;;;;;;;;;;5392233;26;20368;-79
2024/04/22 11:57:54;;;;;;;0.20;0.10;;;;;;;;;;5385825;26;20012;-80
2024/04/22 12:00:20;;;;;;;0.20;0.10;;;;;;;;;;5393412;26;20130;-78
2024/04/22 12:02:46;;;;;;;0.20;0.03;;;;;;;;;;5398364;26;20458;-80
2024/04/22 12:05:14;;;;;;;0.20;0.00;;;;;;;;;;5400361;26;19995;-80
2024/04/22 12:07:43;;;;;;;0.20;0.10;;;;;;;;;;5401844;26;24067;-78
2024/04/22 12:10:10;;;;;;;0.20;0.00;;;;;;;;;;5404786;26;19996;-76
2024/04/22 12:12:36;;;;;;;0.20;0.10;;;;;;;;;;5399029;26;20003;-77
2024/04/22 12:15:02;;;;;;;0.20;0.10;;;;;;;;;;5402000;26;20008;-78
2024/04/22 12:17:28;;;;;;;0.20;0.00;;;;;;;;;;5403799;26;20003;-79
2024/04/22 12:19:54;;;;;;;0.20;0.10;;;;;;;;;;5397537;26;20014;-79
2024/04/22 12:22:20;;;;;;;0.20;0.00;;;;;;;;;;5388814;26;20361;-78
2024/04/22 12:24:47;;;;;;;0.20;0.10;;;;;;;;;;5400053;26;20467;-79
2024/04/22 12:27:13;;;;;;;0.20;0.10;;;;;;;;;;5413671;26;19996;-78
2024/04/22 12:29:39;;;;;;;0.20;0.10;;;;;;;;;;5397002;26;19996;-77
2024/04/22 12:32:05;;;;;;;0.20;0.08;;;;;;;;;;5394930;26;20482;-79
2024/04/22 12:34:31;;;;;;;0.20;0.08;;;;;;;;;;5400436;26;19995;-74
2024/04/22 12:37:00;;;;;;;0.20;0.10;;;;;;;;;;5399280;26;19999;-80
2024/04/22 12:39:27;;;;;;;0.20;0.03;;;;;;;;;;5390434;26;20037;-77
2024/04/22 12:41:53;;;;;;;0.25;0.15;;;;;;;;;;5400287;26;20029;-81
2024/04/22 12:44:19;;;;;;;0.20;0.10;;;;;;;;;;5397527;26;20018;-78
2024/04/22 12:52:17;;;;;;;0.20;0.10;;;;;;;;;;5398609;26;20004;-77
2024/04/22 12:54:43;;;;;;;0.20;0.10;;;;;;;;;;5399678;26;20103;-78
2024/04/22 12:57:10;;;;;;;0.20;0.00;;;;;;;;;;5391489;26;20399;-81
2024/04/22 12:59:36;;;;;;;0.20;0.10;;;;;;;;;;5393938;26;20314;-77
2024/04/22 13:02:03;;;;;;;0.20;0.10;;;;;;;;;;5389971;26;20011;-77
2024/04/22 13:04:29;;;;;;;0.20;0.10;;;;;;;;;;5391245;26;20008;-81
2024/04/22 13:06:56;;;;;;;0.20;0.00;;;;;;;;;;5388076;26;20027;-79
2024/04/22 13:09:22;;;;;;;0.20;0.10;;;;;;;;;;5393155;26;20562;-77
2024/04/22 13:11:48;;;;;;;0.20;0.08;;;;;;;;;;5389424;26;20004;-79
2024/04/22 13:14:14;;;;;;;0.20;0.00;;;;;;;;;;5397341;26;20342;-77
2024/04/22 13:16:40;;;;;;;0.20;0.10;;;;;;;;;;5399897;26;20076;-78
2024/04/22 13:19:07;;;;;;;0.30;0.20;;;;;;;;;;5394970;26;20000;-77
2024/04/22 13:21:33;;;;;;;0.20;0.10;;;;;;;;;;5386109;26;19996;-77
2024/04/22 13:23:59;;;;;;;0.20;0.10;;;;;;;;;;5389816;26;20010;-76
2024/04/22 13:26:25;;;;;;;0.20;0.00;;;;;;;;;;5399031;26;20361;-80
2024/04/22 13:28:52;;;;;;;0.20;0.10;;;;;;;;;;5391326;26;19997;-80
2024/04/22 13:31:18;;;;;;;0.20;0.10;;;;;;;;;;5394810;26;20008;-78
2024/04/22 13:33:44;;;;;;;0.20;0.00;;;;;;;;;;5394768;26;20090;-79
2024/04/22 13:36:10;;;;;;;0.20;0.10;;;;;;;;;;5402025;26;20101;-78
2024/04/22 13:38:36;;;;;;;0.20;0.10;;;;;;;;;;5387286;26;20475;-79
2024/04/22 13:41:02;;;;;;;0.20;0.10;;;;;;;;;;5394922;26;20076;-77
2024/04/22 13:43:29;;;;;;;0.20;0.10;;;;;;;;;;5393416;26;20428;-81
2024/04/22 13:45:55;;;;;;;0.25;0.17;;;;;;;;;;5392521;26;20372;-78
2024/04/22 13:48:21;;;;;;;0.20;0.10;;;;;;;;;;5392104;26;20010;-78
2024/04/22 13:50:47;;;;;;;0.20;0.10;;;;;;;;;;5386800;26;20530;-78
2024/04/22 13:53:13;;;;;;;0.20;0.10;;;;;;;;;;5393129;26;20317;-80
2024/04/22 13:55:39;;;;;;;0.20;0.00;;;;;;;;;;5405506;26;20007;-80
2024/04/22 13:58:06;;;;;;;0.20;0.10;;;;;;;;;;5393862;26;20012;-79
2024/04/22 14:00:32;;;;;;;0.20;0.08;;;;;;;;;;5392677;26;20484;-75
2024/04/22 14:02:58;;;;;;;0.20;0.10;;;;;;;;;;5400694;26;20009;-79
2024/04/22 14:05:24;;;;;;;0.20;0.00;;;;;;;;;;5403426;26;20011;-80
2024/04/22 14:07:50;;;;;;;0.20;0.00;;;;;;;;;;5386143;26;20003;-81
2024/04/22 14:10:16;;;;;;;0.20;0.10;;;;;;;;;;5392111;26;20329;-78
2024/04/22 14:12:42;;;;;;;0.20;0.10;;;;;;;;;;5398320;26;20000;-78
2024/04/22 14:15:09;;;;;;;0.20;0.20;;;;;;;;;;5389289;26;20332;-80
2024/04/22 14:17:38;;;;;;;0.20;0.10;;;;;;;;;;5402548;26;20010;-78
2024/04/22 14:20:06;;;;;;;0.20;0.10;;;;;;;;;;5396292;26;19996;-78
2024/04/22 14:22:32;;;;;;;0.20;0.08;;;;;;;;;;5397529;26;19996;-78
2024/04/22 14:24:58;;;;;;;0.30;0.20;;;;;;;;;;5401381;26;20344;-79
2024/04/22 14:27:24;;;;;;;0.20;0.10;;;;;;;;;;5400753;26;20023;-79
2024/04/22 14:29:51;;;;;;;0.20;0.10;;;;;;;;;;5394950;26;20005;-78
2024/04/22 14:32:17;;;;;;;0.60;0.38;;;;;;;;;;5399620;26;20007;-78
2024/04/22 14:34:43;;;;;;;0.20;0.10;;;;;;;;;;5397353;26;20010;-79
2024/04/22 14:37:09;;;;;;;0.20;0.10;;;;;;;;;;5393536;26;19999;-78
2024/04/22 14:39:35;;;;;;;0.20;0.03;;;;;;;;;;5392683;26;20000;-80
2024/04/22 14:42:01;;;;;;;0.20;0.10;;;;;;;;;;5392927;26;19996;-79
2024/04/22 14:44:27;;;;;;;0.20;0.10;;;;;;;;;;5399939;26;20004;-78
2024/04/22 14:46:54;;;;;;;0.20;0.08;;;;;;;;;;5400012;26;20003;-77
2024/04/22 14:49:20;;;;;;;0.20;0.00;;;;;;;;;;5400604;26;20031;-80
2024/04/22 14:51:46;;;;;;;0.20;0.00;;;;;;;;;;5396575;26;20010;-77
2024/04/22 14:54:12;;;;;;;0.20;0.10;;;;;;;;;;5394672;26;20014;-77